Time;durP1;ratioP1;P1;durP2;ratioP2;P2;SDS_P1;SDS_P2;PMS_P1;PMS_P2;Temp;Humidity;BMP_temperature;BMP_pressure;BME280_temperature;BME280_humidity;BME280_pressure;Samples;Min_cycle;Max_cycle;Signal;HPM_P1;HPM_P2
2021/12/04 00:01:54;;;;;;;4.80;1.73;;;4.80;95.50;;;;;;5010542;28;20410;-76
2021/12/04 00:04:30;;;;;;;3.00;1.60;;;4.80;95.80;;;;;;5011503;28;20414;-75
2021/12/04 00:06:56;;;;;;;2.47;1.70;;;4.80;95.80;;;;;;5011935;28;20464;-76
2021/12/04 00:09:22;;;;;;;4.17;2.50;;;4.70;95.90;;;;;;5010820;28;20816;-76
2021/12/04 00:11:55;;;;;;;1.60;1.33;;;4.70;96.00;;;;;;5011482;28;20609;-75
2021/12/04 00:14:21;;;;;;;3.43;1.73;;;4.70;96.30;;;;;;5011838;28;20472;-75
2021/12/04 00:16:47;;;;;;;3.30;1.70;;;4.70;96.30;;;;;;5012198;28;20406;-75
2021/12/04 00:19:13;;;;;;;1.90;1.70;;;4.70;96.50;;;;;;5011596;28;20469;-76
2021/12/04 00:21:38;;;;;;;3.63;1.53;;;4.70;96.50;;;;;;5010207;28;20214;-75
2021/12/04 00:24:04;;;;;;;3.33;2.17;;;4.70;96.50;;;;;;5012003;28;20163;-76
2021/12/04 00:26:30;;;;;;;2.40;1.40;;;4.70;96.80;;;;;;5010515;28;20241;-76
2021/12/04 00:28:56;;;;;;;6.73;2.50;;;4.70;96.70;;;;;;5011569;28;20434;-75
2021/12/04 00:31:21;;;;;;;2.90;1.80;;;4.70;96.70;;;;;;5011972;28;20159;-76
2021/12/04 00:33:48;;;;;;;4.00;1.77;;;4.70;96.80;;;;;;5012227;28;20202;-76
2021/12/04 00:49:52;;;;;;;2.20;1.90;;;4.80;96.60;;;;;;5011624;28;20431;-75
2021/12/04 00:52:18;;;;;;;4.40;1.57;;;4.80;96.60;;;;;;5011124;28;20426;-75
2021/12/04 00:54:45;;;;;;;3.63;1.73;;;4.80;96.50;;;;;;5011823;28;20175;-75
2021/12/04 00:57:11;;;;;;;2.20;1.70;;;4.80;96.50;;;;;;5011476;28;20266;-75
2021/12/04 00:59:36;;;;;;;3.47;1.87;;;4.80;96.50;;;;;;5011866;28;20469;-75
2021/12/04 01:02:02;;;;;;;2.63;1.87;;;4.80;96.50;;;;;;5010955;28;20406;-75
2021/12/04 01:04:28;;;;;;;2.10;1.57;;;4.80;96.50;;;;;;5010893;28;20182;-75
2021/12/04 01:06:56;;;;;;;4.07;1.90;;;4.80;96.50;;;;;;5011530;28;20202;-75
2021/12/04 01:09:24;;;;;;;1.67;1.30;;;4.80;96.40;;;;;;4993418;28;20194;-74
2021/12/04 01:11:51;;;;;;;1.70;1.40;;;4.80;96.40;;;;;;5010841;28;20422;-74
2021/12/04 01:14:19;;;;;;;2.13;1.50;;;4.80;96.40;;;;;;5011032;28;20493;-75
2021/12/04 01:16:46;;;;;;;1.70;1.13;;;4.80;96.30;;;;;;5009584;28;20418;-75
2021/12/04 01:19:15;;;;;;;2.00;1.47;;;4.80;96.20;;;;;;5010820;28;21070;-76
2021/12/04 01:21:42;;;;;;;2.07;1.40;;;4.80;96.00;;;;;;5011006;28;20943;-76
2021/12/04 01:24:08;;;;;;;2.20;1.40;;;4.80;96.00;;;;;;5011031;28;20966;-75
2021/12/04 01:26:36;;;;;;;2.50;1.40;;;4.80;95.90;;;;;;5010895;28;20466;-75
2021/12/04 01:29:05;;;;;;;2.03;1.83;;;4.80;96.00;;;;;;5009682;28;20434;-75
2021/12/04 01:31:34;;;;;;;2.47;1.60;;;4.80;96.00;;;;;;5010686;28;20464;-75
2021/12/04 01:33:59;;;;;;;2.20;1.57;;;4.80;96.10;;;;;;5010870;28;20179;-75
2021/12/04 01:36:29;;;;;;;2.30;1.60;;;4.80;96.10;;;;;;5010803;28;20416;-75
2021/12/04 01:38:58;;;;;;;1.80;1.13;;;4.80;96.10;;;;;;5010716;28;20249;-76
2021/12/04 01:41:24;;;;;;;2.27;1.50;;;4.80;96.20;;;;;;5012613;28;20413;-75
2021/12/04 01:43:49;;;;;;;6.00;1.40;;;4.80;96.20;;;;;;5012819;28;20443;-75
2021/12/04 01:46:16;;;;;;;1.83;1.23;;;4.80;96.30;;;;;;5014385;28;20676;-75
2021/12/04 01:48:42;;;;;;;2.33;1.37;;;4.80;96.30;;;;;;5014197;28;20501;-75
2021/12/04 01:51:10;;;;;;;3.63;1.60;;;4.80;96.40;;;;;;5014303;28;20232;-75
2021/12/04 01:53:36;;;;;;;3.57;1.87;;;4.80;96.50;;;;;;5014196;28;20526;-75
2021/12/04 01:56:02;;;;;;;3.67;1.70;;;4.80;96.60;;;;;;5014354;28;20441;-75
2021/12/04 01:58:29;;;;;;;3.47;1.77;;;4.80;96.70;;;;;;5013865;28;20449;-75
2021/12/04 02:01:02;;;;;;;4.23;2.67;;;4.70;96.70;;;;;;5014263;28;20410;-75
2021/12/04 02:03:28;;;;;;;4.50;2.10;;;4.70;96.80;;;;;;5013517;28;20490;-75
2021/12/04 02:05:54;;;;;;;3.70;2.40;;;4.70;97.00;;;;;;5014591;28;20544;-75
2021/12/04 02:08:22;;;;;;;3.87;2.20;;;4.70;97.20;;;;;;4980100;28;20199;-75
2021/12/04 02:10:57;;;;;;;2.70;1.70;;;4.80;97.30;;;;;;5014098;28;20412;-75
2021/12/04 02:13:23;;;;;;;2.93;1.83;;;4.80;97.30;;;;;;5014220;28;20763;-75
2021/12/04 02:16:03;;;;;;;3.63;2.50;;;4.70;97.30;;;;;;5014685;28;20837;-75
2021/12/04 02:18:30;;;;;;;3.00;1.83;;;4.70;97.30;;;;;;5014277;28;20784;-75
2021/12/04 02:20:56;;;;;;;3.20;1.50;;;4.70;97.40;;;;;;5013588;28;20505;-75
2021/12/04 02:23:21;;;;;;;3.20;2.10;;;4.70;97.40;;;;;;5013918;28;20475;-75
2021/12/04 02:25:47;;;;;;;4.07;2.50;;;4.60;97.50;;;;;;5013886;28;20469;-76
2021/12/04 02:28:13;;;;;;;4.10;2.30;;;4.70;97.60;;;;;;4996224;28;20303;-75
2021/12/04 02:30:43;;;;;;;4.80;2.80;;;4.70;97.80;;;;;;5012792;28;20175;-75
2021/12/04 02:33:12;;;;;;;3.37;2.30;;;4.70;97.80;;;;;;5013567;28;20629;-75
2021/12/04 02:35:45;;;;;;;2.83;2.30;;;4.60;97.60;;;;;;5013418;28;20414;-75
2021/12/04 02:38:10;;;;;;;2.63;1.83;;;4.60;97.80;;;;;;5013770;28;20945;-75
2021/12/04 02:40:36;;;;;;;3.77;2.80;;;4.60;97.70;;;;;;5013752;28;20438;-75
2021/12/04 02:43:03;;;;;;;3.90;1.70;;;4.60;97.80;;;;;;5013202;28;20171;-75
2021/12/04 02:45:28;;;;;;;2.60;1.70;;;4.60;97.90;;;;;;5012256;28;20418;-75
2021/12/04 02:47:54;;;;;;;3.00;1.83;;;4.60;97.90;;;;;;5012259;28;20432;-74
2021/12/04 02:50:20;;;;;;;2.87;2.57;;;4.50;97.90;;;;;;5013165;28;20166;-75
2021/12/04 02:52:45;;;;;;;2.73;2.30;;;4.50;97.90;;;;;;5012578;28;20667;-75
2021/12/04 02:55:12;;;;;;;3.53;2.13;;;4.50;98.00;;;;;;5013193;28;20163;-75
2021/12/04 02:57:44;;;;;;;3.60;2.17;;;4.50;98.10;;;;;;5013541;28;20209;-75
2021/12/04 03:00:23;;;;;;;3.00;2.10;;;4.50;98.30;;;;;;5013227;28;20501;-75
2021/12/04 03:02:51;;;;;;;1.97;1.73;;;4.50;98.30;;;;;;5012396;28;20414;-75
2021/12/04 03:05:24;;;;;;;3.20;2.13;;;4.60;98.30;;;;;;5011628;28;20414;-75
2021/12/04 03:07:51;;;;;;;6.17;2.30;;;4.50;98.30;;;;;;5011571;28;20205;-75
2021/12/04 03:10:17;;;;;;;4.73;2.40;;;4.50;98.10;;;;;;5012959;28;20493;-75
2021/12/04 03:12:43;;;;;;;5.20;2.60;;;4.50;98.10;;;;;;5011155;28;20417;-75
2021/12/04 03:15:09;;;;;;;5.10;2.53;;;4.50;98.20;;;;;;5012764;28;20428;-75
2021/12/04 03:17:35;;;;;;;5.87;3.07;;;4.50;98.20;;;;;;5012772;28;20175;-75
2021/12/04 03:20:02;;;;;;;3.80;2.17;;;4.40;98.20;;;;;;4995151;28;20560;-75
2021/12/04 03:22:28;;;;;;;2.83;2.20;;;4.40;98.30;;;;;;5011142;28;20266;-75
2021/12/04 03:24:57;;;;;;;2.70;2.23;;;4.40;98.30;;;;;;4995587;28;20509;-75
2021/12/04 03:27:25;;;;;;;4.70;2.50;;;4.50;98.40;;;;;;5012327;28;20485;-75
2021/12/04 03:29:58;;;;;;;7.67;3.10;;;4.40;98.40;;;;;;5012514;28;20422;-75
2021/12/04 03:43:08;;;;;;;3.57;2.13;;;4.50;98.40;;;;;;5011308;28;20849;-74
2021/12/04 03:45:36;;;;;;;5.40;2.70;;;4.40;98.40;;;;;;5012913;28;20857;-74
2021/12/04 03:48:12;;;;;;;6.40;2.60;;;4.50;98.50;;;;;;5013494;28;20418;-74
2021/12/04 03:50:38;;;;;;;4.97;2.93;;;4.40;98.50;;;;;;5016280;28;20883;-75
2021/12/04 03:53:11;;;;;;;3.13;2.53;;;4.40;98.50;;;;;;5012848;28;20422;-75
2021/12/04 03:55:39;;;;;;;2.70;2.10;;;4.40;98.50;;;;;;5012376;28;20171;-74
2021/12/04 03:58:07;;;;;;;4.67;2.33;;;4.30;98.40;;;;;;5011954;28;20469;-75
2021/12/04 04:00:33;;;;;;;3.10;2.03;;;4.30;98.60;;;;;;5011926;28;20424;-75
2021/12/04 04:02:58;;;;;;;3.13;2.10;;;4.20;98.70;;;;;;5010688;28;20834;-75
2021/12/04 04:05:24;;;;;;;4.70;2.20;;;4.20;98.80;;;;;;5011644;28;20167;-75
2021/12/04 04:07:50;;;;;;;4.70;2.40;;;4.20;98.90;;;;;;5010519;28;20229;-75
2021/12/04 04:10:26;;;;;;;4.63;2.20;;;4.20;99.00;;;;;;5010519;28;20441;-75
2021/12/04 04:12:52;;;;;;;2.73;2.20;;;4.20;99.10;;;;;;5009915;28;20262;-75
2021/12/04 04:15:22;;;;;;;3.43;2.37;;;4.20;99.00;;;;;;5011945;28;20410;-75
2021/12/04 04:17:52;;;;;;;2.90;1.60;;;4.20;98.90;;;;;;5010359;28;20588;-75
2021/12/04 04:20:21;;;;;;;2.43;1.93;;;4.20;98.90;;;;;;5009967;28;20406;-76
2021/12/04 04:22:48;;;;;;;2.60;2.03;;;4.20;98.90;;;;;;5011254;28;20923;-75
2021/12/04 04:25:17;;;;;;;4.40;2.63;;;4.20;98.80;;;;;;5011139;28;20471;-74
2021/12/04 04:27:43;;;;;;;3.13;2.00;;;4.20;98.80;;;;;;5010969;28;20409;-75
2021/12/04 04:30:15;;;;;;;3.23;1.60;;;4.20;98.80;;;;;;5008543;28;20425;-75
2021/12/04 04:32:42;;;;;;;4.10;2.10;;;4.30;98.90;;;;;;5008956;28;20402;-75
2021/12/04 04:35:11;;;;;;;4.43;2.63;;;4.30;98.90;;;;;;5010464;28;20534;-75
2021/12/04 04:59:28;;;;;;;2.33;1.60;;;4.40;98.40;;;;;;5011008;28;20567;-74
2021/12/04 05:02:07;;;;;;;2.60;1.80;;;4.40;98.40;;;;;;5009479;28;20410;-75
2021/12/04 05:10:40;;;;;;;2.93;2.00;;;4.50;98.70;;;;;;5010867;28;20468;-74
2021/12/04 05:13:09;;;;;;;3.10;1.73;;;4.50;98.40;;;;;;4993049;28;20937;-75
2021/12/04 05:15:56;;;;;;;4.63;1.77;;;4.50;98.40;;;;;;5011813;28;20418;-74
2021/12/04 05:21:04;;;;;;;3.90;1.97;;;4.60;98.30;;;;;;5015351;28;20406;-75
2021/12/04 05:23:39;;;;;;;2.43;1.40;;;4.50;98.20;;;;;;5013509;28;20836;-75
2021/12/04 05:26:10;;;;;;;3.70;2.10;;;4.50;98.30;;;;;;5014573;28;20484;-75
2021/12/04 05:28:39;;;;;;;3.87;2.30;;;4.50;98.30;;;;;;5013448;28;20426;-74
2021/12/04 05:31:05;;;;;;;3.53;1.87;;;4.50;98.30;;;;;;5013226;28;20398;-75
2021/12/04 05:33:31;;;;;;;4.03;1.80;;;4.50;98.30;;;;;;5012866;28;20416;-74
2021/12/04 05:35:57;;;;;;;2.30;1.50;;;4.50;98.20;;;;;;5014577;28;20405;-75
2021/12/04 05:38:26;;;;;;;2.83;2.03;;;4.50;98.20;;;;;;5014671;28;20183;-75
2021/12/04 05:40:52;;;;;;;1.93;1.60;;;4.50;98.30;;;;;;5014654;28;20406;-75
2021/12/04 05:43:22;;;;;;;3.37;2.30;;;4.50;98.20;;;;;;5014187;28;20493;-75
2021/12/04 05:45:56;;;;;;;4.93;2.10;;;4.50;98.40;;;;;;5012963;28;20452;-75
2021/12/04 05:48:30;;;;;;;2.33;1.70;;;4.40;98.40;;;;;;5012951;28;20806;-74
2021/12/04 05:51:21;;;;;;;2.23;1.73;;;4.40;98.40;;;;;;5013206;28;20414;-75
2021/12/04 05:56:17;;;;;;;4.43;2.73;;;4.50;98.60;;;;;;5015088;28;20798;-74
2021/12/04 05:58:43;;;;;;;2.60;1.80;;;4.50;98.30;;;;;;5014470;28;20433;-74
2021/12/04 06:01:12;;;;;;;2.80;1.53;;;4.50;98.30;;;;;;5012738;28;20417;-74
2021/12/04 06:03:40;;;;;;;2.20;2.00;;;4.50;98.50;;;;;;5012430;28;20401;-74
2021/12/04 06:06:06;;;;;;;2.13;1.50;;;4.50;98.20;;;;;;5062848;22;20467;-76
2021/12/04 06:08:32;;;;;;;3.67;2.20;;;4.50;98.30;;;;;;5061641;28;20620;-76
2021/12/04 06:10:58;;;;;;;3.10;1.60;;;4.50;98.40;;;;;;5061309;28;20414;-75
2021/12/04 06:13:24;;;;;;;5.40;1.90;;;4.50;98.30;;;;;;5059116;28;20176;-76
2021/12/04 06:15:51;;;;;;;4.63;1.67;;;4.50;98.40;;;;;;5054914;28;20208;-76
2021/12/04 06:18:17;;;;;;;2.13;1.80;;;4.60;98.40;;;;;;5063770;28;20419;-75
2021/12/04 06:23:32;;;;;;;2.73;1.70;;;4.60;98.30;;;;;;5075811;28;20412;-76
2021/12/04 06:25:58;;;;;;;3.50;1.90;;;4.70;98.30;;;;;;5076394;28;20452;-79
2021/12/04 06:28:27;;;;;;;3.07;1.97;;;4.70;98.10;;;;;;5064714;28;20420;-78
2021/12/04 06:30:54;;;;;;;2.57;1.73;;;4.60;98.00;;;;;;5058002;28;20408;-78
2021/12/04 06:33:21;;;;;;;3.80;2.43;;;4.60;98.10;;;;;;5060906;28;20419;-77
2021/12/04 06:35:49;;;;;;;2.90;1.93;;;4.60;98.10;;;;;;5076667;28;20424;-77
2021/12/04 06:38:17;;;;;;;2.53;1.97;;;4.60;98.10;;;;;;5058244;28;20427;-77
2021/12/04 06:40:45;;;;;;;3.87;2.67;;;4.60;98.20;;;;;;5055932;28;20415;-78
2021/12/04 06:43:11;;;;;;;4.50;2.00;;;4.60;98.50;;;;;;5056702;28;20874;-77
2021/12/04 06:45:41;;;;;;;2.53;2.03;;;4.60;98.30;;;;;;5071069;28;20440;-76
2021/12/04 06:48:17;;;;;;;4.43;2.47;;;4.60;98.00;;;;;;5055313;28;20462;-78
2021/12/04 06:50:50;;;;;;;3.17;2.10;;;4.60;98.00;;;;;;5081365;28;20463;-77
2021/12/04 06:55:55;;;;;;;3.10;2.70;;;4.60;98.20;;;;;;5076858;28;20432;-78
2021/12/04 06:58:23;;;;;;;4.20;2.80;;;4.70;98.20;;;;;;5075672;28;20416;-77
2021/12/04 07:00:52;;;;;;;3.97;3.00;;;4.70;98.10;;;;;;5088143;28;20435;-78
2021/12/04 07:03:19;;;;;;;4.77;2.67;;;4.70;98.10;;;;;;5090144;28;20474;-79
2021/12/04 07:05:48;;;;;;;5.20;2.70;;;4.70;98.10;;;;;;5073809;28;20508;-77
2021/12/04 07:08:14;;;;;;;4.10;2.30;;;4.70;98.10;;;;;;5092537;28;20403;-76
2021/12/04 07:10:43;;;;;;;3.57;2.60;;;4.60;98.00;;;;;;5073896;28;20443;-77
2021/12/04 07:13:09;;;;;;;3.17;2.60;;;4.60;98.00;;;;;;5062538;28;20811;-76
2021/12/04 07:15:35;;;;;;;3.10;2.53;;;4.60;98.00;;;;;;5076676;28;20956;-76
2021/12/04 07:18:02;;;;;;;2.87;2.10;;;4.60;98.00;;;;;;5056301;28;20428;-77
2021/12/04 07:20:28;;;;;;;4.00;2.30;;;4.60;97.90;;;;;;5056324;28;20180;-77
2021/12/04 07:22:54;;;;;;;3.37;2.20;;;4.60;97.90;;;;;;5062788;28;20472;-77
2021/12/04 07:25:21;;;;;;;3.87;2.90;;;4.60;98.00;;;;;;5061403;28;20424;-78
2021/12/04 07:27:48;;;;;;;4.10;2.97;;;4.60;98.00;;;;;;5070966;28;20193;-77
2021/12/04 07:30:14;;;;;;;4.47;2.90;;;4.60;97.80;;;;;;5069563;28;20444;-77
2021/12/04 07:32:40;;;;;;;3.43;2.50;;;4.60;97.80;;;;;;5069977;28;20420;-76
2021/12/04 07:35:07;;;;;;;5.70;3.53;;;4.60;97.80;;;;;;5085898;28;20456;-78
2021/12/04 07:37:33;;;;;;;4.37;3.27;;;4.70;97.80;;;;;;5079063;28;20409;-76
2021/12/04 07:39:58;;;;;;;4.97;2.97;;;4.70;97.90;;;;;;5037814;28;20525;-77
2021/12/04 07:42:24;;;;;;;4.40;3.20;;;4.70;97.80;;;;;;5029121;28;20204;-76
2021/12/04 07:44:50;;;;;;;3.37;2.70;;;4.70;97.80;;;;;;5034791;28;20175;-75
2021/12/04 07:47:16;;;;;;;11.83;3.03;;;4.70;97.90;;;;;;5033974;28;20514;-77
2021/12/04 07:49:43;;;;;;;3.80;2.90;;;4.70;97.70;;;;;;5041266;28;20257;-76
2021/12/04 07:52:10;;;;;;;4.57;2.63;;;4.70;97.80;;;;;;5032795;28;20247;-77
2021/12/04 07:54:37;;;;;;;4.87;3.07;;;4.70;97.40;;;;;;5016330;28;20420;-78
2021/12/04 07:57:03;;;;;;;4.13;3.10;;;4.70;97.50;;;;;;5041953;28;21005;-78
2021/12/04 07:59:29;;;;;;;4.23;3.00;;;4.70;97.80;;;;;;5063335;28;20448;-77
2021/12/04 08:01:57;;;;;;;5.30;3.50;;;4.70;97.50;;;;;;5060469;28;20909;-75
2021/12/04 08:04:23;;;;;;;7.57;3.20;;;4.80;97.50;;;;;;5060345;28;20432;-76
2021/12/04 08:06:50;;;;;;;3.60;2.73;;;4.80;97.30;;;;;;5046543;28;20822;-75
2021/12/04 08:09:16;;;;;;;4.37;3.20;;;4.80;97.30;;;;;;5057324;28;20419;-75
2021/12/04 08:11:42;;;;;;;19.43;10.60;;;4.80;97.20;;;;;;5043103;28;20457;-76
2021/12/04 08:14:07;;;;;;;4.23;2.90;;;4.90;97.10;;;;;;5050350;28;20174;-74
2021/12/04 08:16:33;;;;;;;4.70;2.57;;;4.90;97.10;;;;;;5052940;28;20290;-75
2021/12/04 08:18:59;;;;;;;6.17;2.83;;;4.90;97.00;;;;;;5051794;28;20643;-75
2021/12/04 08:21:25;;;;;;;5.03;2.97;;;4.90;96.80;;;;;;5048625;28;20451;-75
2021/12/04 08:23:51;;;;;;;4.97;3.20;;;5.00;96.90;;;;;;5048464;28;20445;-75
2021/12/04 08:26:19;;;;;;;4.70;3.07;;;5.00;96.80;;;;;;5050244;28;20468;-75
2021/12/04 08:28:45;;;;;;;4.77;3.20;;;5.00;96.60;;;;;;5044658;28;20462;-74
2021/12/04 08:31:11;;;;;;;6.40;2.80;;;5.10;96.60;;;;;;5052487;28;20480;-75
2021/12/04 08:33:37;;;;;;;4.90;3.70;;;5.10;96.50;;;;;;5048048;28;20523;-74
2021/12/04 08:36:04;;;;;;;3.90;3.07;;;5.20;96.30;;;;;;5045111;28;20463;-76
2021/12/04 08:38:30;;;;;;;7.33;3.43;;;5.30;96.60;;;;;;5052177;28;20177;-74
2021/12/04 08:40:56;;;;;;;5.27;3.20;;;5.30;96.00;;;;;;5052245;28;20408;-76
2021/12/04 08:43:22;;;;;;;5.60;3.40;;;5.40;96.40;;;;;;5051248;28;20470;-75
2021/12/04 08:45:48;;;;;;;12.30;4.73;;;5.50;96.20;;;;;;5051102;28;20444;-76
2021/12/04 08:48:14;;;;;;;4.17;2.80;;;5.60;95.40;;;;;;5051018;28;20222;-75
2021/12/04 08:50:40;;;;;;;3.97;3.00;;;5.60;95.40;;;;;;5052125;28;20166;-75
2021/12/04 08:53:07;;;;;;;3.03;2.50;;;5.70;95.10;;;;;;5050614;28;20166;-76
2021/12/04 08:55:35;;;;;;;3.73;2.63;;;5.80;94.90;;;;;;5051749;28;20794;-74
2021/12/04 08:58:01;;;;;;;3.67;2.80;;;5.80;94.40;;;;;;5044276;28;20428;-71
2021/12/04 09:00:48;;;;;;;4.40;2.50;;;5.80;94.10;;;;;;5048760;28;20451;-71
2021/12/04 09:03:15;;;;;;;4.33;3.30;;;5.80;93.30;;;;;;5048991;28;21088;-73
2021/12/04 09:05:40;;;;;;;3.10;2.50;;;5.80;93.90;;;;;;5048942;28;21025;-73
2021/12/04 09:08:07;;;;;;;7.90;2.50;;;5.80;94.20;;;;;;5045425;28;20435;-72
2021/12/04 09:10:33;;;;;;;4.40;2.67;;;5.70;94.10;;;;;;5049339;28;20224;-73
2021/12/04 09:12:59;;;;;;;4.27;3.10;;;5.70;94.00;;;;;;5052745;28;20810;-73
2021/12/04 09:15:31;;;;;;;6.13;2.90;;;5.70;93.80;;;;;;5051101;28;20437;-74
2021/12/04 09:17:58;;;;;;;3.63;2.37;;;5.90;94.50;;;;;;5052607;28;20174;-72
2021/12/04 09:20:24;;;;;;;4.03;2.50;;;6.10;93.70;;;;;;5053200;28;20483;-73
2021/12/04 09:22:50;;;;;;;4.07;3.00;;;6.50;93.90;;;;;;5050585;28;20865;-73
2021/12/04 09:25:22;;;;;;;3.60;2.40;;;7.10;92.90;;;;;;5050536;28;20420;-72
2021/12/04 09:35:25;;;;;;;2.43;1.97;;;10.80;72.60;;;;;;5050824;28;20420;-71
2021/12/04 10:05:38;;;;;;;4.13;2.83;;;10.90;62.80;;;;;;5055409;28;20428;-74
2021/12/04 10:21:32;;;;;;;10.40;5.33;;;9.70;68.70;;;;;;5055633;28;20413;-75
2021/12/04 10:35:09;;;;;;;3.10;2.60;;;7.70;78.60;;;;;;5058291;28;20486;-74
2021/12/04 10:37:44;;;;;;;2.80;2.43;;;7.50;80.80;;;;;;5056631;28;20742;-75
2021/12/04 10:40:10;;;;;;;3.33;2.33;;;7.30;81.60;;;;;;5050965;28;21009;-71
2021/12/04 10:42:59;;;;;;;2.77;2.20;;;7.20;83.60;;;;;;5052558;28;20508;-71
2021/12/04 10:45:33;;;;;;;3.87;2.50;;;7.40;84.20;;;;;;5054155;28;20193;-71
2021/12/04 10:48:03;;;;;;;4.40;2.70;;;7.40;84.00;;;;;;5055642;28;20469;-71
2021/12/04 10:53:01;;;;;;;4.70;2.43;;;7.50;82.10;;;;;;5053437;28;20407;-72
2021/12/04 11:01:07;;;;;;;3.23;2.20;;;7.20;83.10;;;;;;5055484;28;20960;-72
2021/12/04 11:03:48;;;;;;;1.97;1.63;;;7.20;85.10;;;;;;5041842;28;20420;-73
2021/12/04 11:37:31;;;;;;;3.23;2.03;;;6.80;87.70;;;;;;5039063;28;21846;-72
2021/12/04 11:42:53;;;;;;;11.77;6.80;;;6.80;88.70;;;;;;5052508;28;20416;-73
2021/12/04 11:45:26;;;;;;;2.77;2.03;;;6.80;88.50;;;;;;5040419;28;22343;-73
2021/12/04 11:48:01;;;;;;;7.27;3.47;;;6.80;88.30;;;;;;5049394;28;20505;-73
2021/12/04 11:50:31;;;;;;;1.83;1.23;;;6.90;89.30;;;;;;5048068;28;20443;-77
2021/12/04 11:53:00;;;;;;;2.10;1.50;;;6.80;88.10;;;;;;5049666;28;20439;-72
2021/12/04 11:55:31;;;;;;;5.17;2.43;;;6.70;88.00;;;;;;5053894;28;20443;-73
2021/12/04 11:57:57;;;;;;;3.60;1.53;;;6.70;89.70;;;;;;5025164;28;20436;-72
2021/12/04 12:00:31;;;;;;;17.30;11.23;;;6.80;89.80;;;;;;5045033;28;20491;-70
2021/12/04 12:03:17;;;;;;;3.77;2.00;;;6.90;89.20;;;;;;5046339;28;20420;-71
2021/12/04 12:06:04;;;;;;;3.57;1.67;;;6.90;88.70;;;;;;5036211;28;20477;-71
2021/12/04 12:08:42;;;;;;;3.17;1.60;;;6.90;88.10;;;;;;5043869;28;20428;-72
2021/12/04 12:11:27;;;;;;;9.77;3.30;;;6.90;88.70;;;;;;5045956;28;20713;-73
2021/12/04 12:14:07;;;;;;;2.73;1.70;;;7.00;88.70;;;;;;5049777;28;20424;-72
2021/12/04 12:16:38;;;;;;;3.50;1.80;;;6.90;87.70;;;;;;5049312;28;20448;-70
2021/12/04 12:19:25;;;;;;;7.23;1.63;;;6.70;88.40;;;;;;5047579;28;20436;-72
2021/12/04 12:21:58;;;;;;;2.70;1.93;;;6.70;89.60;;;;;;5048782;28;20854;-72
2021/12/04 12:32:53;;;;;;;2.73;1.77;;;6.60;90.10;;;;;;5044681;28;20824;-71
2021/12/04 12:38:47;;;;;;;3.07;1.70;;;6.60;90.30;;;;;;5050912;28;20430;-75
2021/12/04 12:41:37;;;;;;;2.50;1.97;;;6.70;90.80;;;;;;5052999;28;20420;-73
2021/12/04 12:44:18;;;;;;;3.00;1.80;;;6.70;90.50;;;;;;5051229;28;20440;-72
2021/12/04 12:46:58;;;;;;;2.20;1.50;;;6.70;90.30;;;;;;5046008;28;20466;-74
2021/12/04 12:49:42;;;;;;;2.70;1.80;;;6.70;90.30;;;;;;5049706;28;20461;-72
2021/12/04 12:52:15;;;;;;;2.37;1.87;;;6.60;90.40;;;;;;5049039;28;20546;-73
2021/12/04 12:54:54;;;;;;;4.30;2.87;;;6.50;90.50;;;;;;5049344;28;20424;-74
2021/12/04 12:57:25;;;;;;;3.00;1.60;;;6.50;91.10;;;;;;5051325;28;20455;-73
2021/12/04 13:12:02;;;;;;;3.80;1.93;;;6.30;91.90;;;;;;5049344;28;20578;-73
2021/12/04 13:14:45;;;;;;;8.20;3.40;;;6.30;91.90;;;;;;5044917;28;20487;-73
2021/12/04 13:17:16;;;;;;;4.17;2.40;;;6.30;92.50;;;;;;5051195;28;20459;-73
2021/12/04 13:19:47;;;;;;;2.87;2.03;;;6.40;92.50;;;;;;5050826;28;20423;-72
2021/12/04 13:22:17;;;;;;;3.00;2.50;;;6.40;92.90;;;;;;5050209;28;20793;-74
2021/12/04 13:24:46;;;;;;;5.70;3.80;;;6.40;92.90;;;;;;5051889;28;20474;-73
2021/12/04 13:29:45;;;;;;;3.33;1.90;;;6.40;93.50;;;;;;5042697;28;20416;-74
2021/12/04 13:32:13;;;;;;;3.70;2.43;;;6.40;93.50;;;;;;5051205;28;20790;-72
2021/12/04 13:34:40;;;;;;;3.40;2.73;;;6.50;93.80;;;;;;5041433;28;20432;-72
2021/12/04 13:37:07;;;;;;;5.30;2.60;;;6.50;94.10;;;;;;5053259;28;20482;-71
2021/12/04 13:39:34;;;;;;;3.80;2.60;;;6.50;94.30;;;;;;5053261;28;20443;-74
2021/12/04 13:42:01;;;;;;;3.63;2.80;;;6.60;94.30;;;;;;5053894;28;20863;-75
2021/12/04 13:44:29;;;;;;;4.23;2.27;;;6.60;94.40;;;;;;5053827;28;20415;-75
2021/12/04 13:47:00;;;;;;;3.07;2.37;;;6.60;94.10;;;;;;5051248;28;20471;-74
2021/12/04 13:49:32;;;;;;;2.90;2.00;;;6.60;94.10;;;;;;5053285;28;20423;-75
2021/12/04 13:52:05;;;;;;;154.57;85.07;;;6.70;94.10;;;;;;5053313;28;20546;-71
2021/12/04 13:54:32;;;;;;;4.00;3.07;;;6.60;94.40;;;;;;5054658;28;20917;-74
2021/12/04 13:56:58;;;;;;;3.20;2.50;;;6.60;94.50;;;;;;5052664;28;20584;-74
2021/12/04 13:59:26;;;;;;;4.43;2.60;;;6.60;94.50;;;;;;5051207;28;20487;-74
2021/12/04 14:01:53;;;;;;;5.13;2.90;;;6.50;94.50;;;;;;5053975;28;20253;-75
2021/12/04 14:04:20;;;;;;;4.90;3.00;;;6.50;94.90;;;;;;5049695;28;20843;-74
2021/12/04 14:06:57;;;;;;;24.67;16.80;;;6.60;95.40;;;;;;5053720;28;20506;-74
2021/12/04 14:09:30;;;;;;;6.50;4.80;;;6.60;96.30;;;;;;5055057;28;20420;-72
2021/12/04 14:12:09;;;;;;;5.53;2.73;;;6.70;94.90;;;;;;5052666;28;20428;-73
2021/12/04 14:14:35;;;;;;;7.20;3.37;;;6.60;94.60;;;;;;5056742;28;20755;-74
2021/12/04 14:17:08;;;;;;;3.53;2.70;;;6.60;94.80;;;;;;5055844;28;20825;-73
2021/12/04 14:19:36;;;;;;;5.87;2.83;;;6.50;95.00;;;;;;5021419;28;20424;-72
2021/12/04 14:22:08;;;;;;;7.30;3.47;;;6.40;95.00;;;;;;5053045;28;20435;-73
2021/12/04 14:24:50;;;;;;;5.30;2.97;;;6.30;95.10;;;;;;5057198;28;21112;-73
2021/12/04 14:27:42;;;;;;;5.87;3.53;;;6.30;95.40;;;;;;5057351;28;20495;-72
2021/12/04 14:30:21;;;;;;;50.63;32.33;;;6.30;95.70;;;;;;5052621;28;20497;-76
2021/12/04 14:32:57;;;;;;;6.70;3.17;;;6.30;95.90;;;;;;5054405;28;20408;-72
2021/12/04 14:35:28;;;;;;;5.27;3.30;;;6.30;96.40;;;;;;5054444;28;20477;-73
2021/12/04 14:37:56;;;;;;;4.70;3.07;;;6.20;96.10;;;;;;5054681;28;20416;-72
2021/12/04 14:40:41;;;;;;;3.63;2.90;;;6.20;96.10;;;;;;5070114;28;20404;-74
2021/12/04 14:43:10;;;;;;;4.50;3.80;;;6.20;96.10;;;;;;5054662;28;20411;-72
2021/12/04 14:45:37;;;;;;;3.43;3.13;;;6.20;96.40;;;;;;5054204;28;20538;-74
2021/12/04 14:48:12;;;;;;;7.10;3.13;;;6.20;96.50;;;;;;5053288;28;20419;-74
2021/12/04 14:50:43;;;;;;;8.33;3.00;;;6.20;96.50;;;;;;5070081;28;20408;-73
2021/12/04 14:53:12;;;;;;;6.10;4.70;;;6.20;96.70;;;;;;5053991;28;20408;-74
2021/12/04 14:55:41;;;;;;;7.50;3.93;;;6.30;96.70;;;;;;5054040;28;20440;-73
2021/12/04 14:58:13;;;;;;;11.20;6.27;;;6.30;96.90;;;;;;5055848;28;20419;-75
2021/12/04 15:00:48;;;;;;;11.13;6.17;;;6.30;97.00;;;;;;5056232;28;20412;-72
2021/12/04 15:03:18;;;;;;;10.07;6.97;;;6.30;97.10;;;;;;5058036;28;20503;-73
2021/12/04 15:05:57;;;;;;;8.80;5.30;;;6.30;97.30;;;;;;5052208;28;20586;-74
2021/12/04 15:08:38;;;;;;;7.07;3.80;;;6.30;97.60;;;;;;5052428;28;20472;-72
2021/12/04 15:11:09;;;;;;;6.30;4.10;;;6.20;97.60;;;;;;5053309;28;20400;-72
2021/12/04 15:13:44;;;;;;;10.07;5.13;;;6.10;97.70;;;;;;5048733;28;20412;-72
2021/12/04 15:16:15;;;;;;;11.67;6.70;;;6.10;97.80;;;;;;5039813;28;20493;-72
2021/12/04 15:18:44;;;;;;;23.50;8.70;;;6.10;98.10;;;;;;5054237;28;20420;-74
2021/12/04 15:21:17;;;;;;;25.33;8.80;;;6.10;98.20;;;;;;5052021;28;20420;-73
2021/12/04 15:23:45;;;;;;;11.63;6.57;;;6.10;98.20;;;;;;5052437;28;20415;-75
2021/12/04 15:26:18;;;;;;;24.17;10.70;;;6.20;98.50;;;;;;5052542;28;20991;-72
2021/12/04 15:28:50;;;;;;;12.07;8.20;;;6.10;98.50;;;;;;5052100;28;20838;-73
2021/12/04 15:31:18;;;;;;;23.43;8.50;;;6.20;98.60;;;;;;5052857;28;20427;-72
2021/12/04 15:33:47;;;;;;;15.53;7.67;;;6.10;98.60;;;;;;5053674;28;20416;-72
2021/12/04 15:36:39;;;;;;;17.53;8.07;;;6.20;98.70;;;;;;5051828;28;20801;-73
2021/12/04 15:39:12;;;;;;;7.57;5.20;;;6.10;98.70;;;;;;5031318;28;20918;-72
2021/12/04 15:41:58;;;;;;;14.63;7.50;;;6.10;98.70;;;;;;5040655;28;20454;-72
2021/12/04 15:47:42;;;;;;;12.90;6.83;;;6.10;98.90;;;;;;5028230;28;20472;-73
2021/12/04 15:50:29;;;;;;;11.00;4.60;;;6.10;99.00;;;;;;5034161;28;20413;-74
2021/12/04 15:53:04;;;;;;;9.40;6.87;;;6.00;98.90;;;;;;5037848;28;20411;-72
2021/12/04 15:55:35;;;;;;;12.07;6.70;;;6.00;99.10;;;;;;5045743;28;20506;-74
2021/12/04 15:58:14;;;;;;;6.90;4.13;;;6.00;99.10;;;;;;5045177;28;20429;-72
2021/12/04 16:00:46;;;;;;;7.00;4.40;;;6.00;99.40;;;;;;5045425;28;20434;-73
2021/12/04 16:03:16;;;;;;;33.90;23.80;;;6.00;99.30;;;;;;5041672;28;20433;-75
2021/12/04 16:05:48;;;;;;;12.77;5.27;;;6.00;99.30;;;;;;5045681;28;20538;-72
2021/12/04 16:08:17;;;;;;;19.63;6.13;;;5.90;99.20;;;;;;5037790;28;20918;-73
2021/12/04 16:10:45;;;;;;;5.60;4.17;;;5.90;99.30;;;;;;5046487;28;20518;-72
2021/12/04 16:13:23;;;;;;;7.70;5.10;;;5.90;99.40;;;;;;5051218;28;20567;-74
2021/12/04 16:15:49;;;;;;;4.77;3.23;;;5.90;99.40;;;;;;5035187;28;20497;-73
2021/12/04 16:18:16;;;;;;;5.87;3.50;;;6.00;99.70;;;;;;5045914;28;20451;-72
2021/12/04 16:20:45;;;;;;;4.03;3.23;;;5.90;99.40;;;;;;5050171;28;20491;-74
2021/12/04 16:23:11;;;;;;;3.50;2.30;;;5.90;99.30;;;;;;5055827;28;20420;-75